sensor_id;sensor_type;location;lat;lon;timestamp;P1;durP1;ratioP1;P2;durP2;ratioP2
3141;SDS011;1581;51.568;6.998;2022-08-19T00:01:33;4.70;;;4.28;;
3141;SDS011;1581;51.568;6.998;2022-08-19T00:04:04;8.40;;;3.70;;
3141;SDS011;1581;51.568;6.998;2022-08-19T00:06:35;6.28;;;3.80;;
3141;SDS011;1581;51.568;6.998;2022-08-19T00:09:05;6.30;;;4.85;;
3141;SDS011;1581;51.568;6.998;2022-08-19T00:11:37;7.05;;;4.20;;
3141;SDS011;1581;51.568;6.998;2022-08-19T00:14:06;4.63;;;3.90;;
3141;SDS011;1581;51.568;6.998;2022-08-19T00:16:36;5.13;;;4.15;;
3141;SDS011;1581;51.568;6.998;2022-08-19T00:19:05;5.35;;;3.95;;
3141;SDS011;1581;51.568;6.998;2022-08-19T00:21:34;4.15;;;3.85;;
3141;SDS011;1581;51.568;6.998;2022-08-19T00:24:05;7.40;;;4.50;;
3141;SDS011;1581;51.568;6.998;2022-08-19T00:26:34;4.15;;;3.67;;
3141;SDS011;1581;51.568;6.998;2022-08-19T00:29:03;5.90;;;5.03;;
3141;SDS011;1581;51.568;6.998;2022-08-19T00:31:33;6.43;;;3.88;;
3141;SDS011;1581;51.568;6.998;2022-08-19T00:34:01;5.18;;;4.57;;
3141;SDS011;1581;51.568;6.998;2022-08-19T00:36:29;5.78;;;3.40;;
3141;SDS011;1581;51.568;6.998;2022-08-19T00:38:57;4.43;;;3.88;;
3141;SDS011;1581;51.568;6.998;2022-08-19T00:41:25;4.72;;;4.20;;
3141;SDS011;1581;51.568;6.998;2022-08-19T00:43:57;6.60;;;4.35;;
3141;SDS011;1581;51.568;6.998;2022-08-19T00:46:30;5.40;;;3.97;;
3141;SDS011;1581;51.568;6.998;2022-08-19T00:48:59;4.25;;;3.85;;
3141;SDS011;1581;51.568;6.998;2022-08-19T00:51:28;4.88;;;4.47;;
3141;SDS011;1581;51.568;6.998;2022-08-19T00:53:58;6.63;;;4.68;;
3141;SDS011;1581;51.568;6.998;2022-08-19T00:56:27;4.97;;;4.53;;
3141;SDS011;1581;51.568;6.998;2022-08-19T00:58:56;8.77;;;4.43;;
3141;SDS011;1581;51.568;6.998;2022-08-19T01:01:26;6.43;;;4.60;;
3141;SDS011;1581;51.568;6.998;2022-08-19T01:03:56;8.80;;;4.25;;
3141;SDS011;1581;51.568;6.998;2022-08-19T01:06:24;9.35;;;4.10;;
3141;SDS011;1581;51.568;6.998;2022-08-19T01:08:52;7.57;;;4.47;;
3141;SDS011;1581;51.568;6.998;2022-08-19T01:11:20;8.27;;;5.18;;
3141;SDS011;1581;51.568;6.998;2022-08-19T01:13:48;5.47;;;4.40;;
3141;SDS011;1581;51.568;6.998;2022-08-19T01:16:19;5.07;;;4.35;;
3141;SDS011;1581;51.568;6.998;2022-08-19T01:18:50;4.53;;;4.13;;
3141;SDS011;1581;51.568;6.998;2022-08-19T01:21:21;6.50;;;4.47;;
3141;SDS011;1581;51.568;6.998;2022-08-19T01:23:56;7.22;;;3.97;;
3141;SDS011;1581;51.568;6.998;2022-08-19T01:26:24;4.65;;;4.22;;
3141;SDS011;1581;51.568;6.998;2022-08-19T01:28:54;9.13;;;4.32;;
3141;SDS011;1581;51.568;6.998;2022-08-19T01:31:25;7.38;;;3.47;;
3141;SDS011;1581;51.568;6.998;2022-08-19T01:33:56;6.00;;;5.40;;
3141;SDS011;1581;51.568;6.998;2022-08-19T01:36:25;7.32;;;4.43;;
3141;SDS011;1581;51.568;6.998;2022-08-19T01:38:57;4.97;;;4.05;;
3141;SDS011;1581;51.568;6.998;2022-08-19T01:41:26;6.25;;;4.15;;
3141;SDS011;1581;51.568;6.998;2022-08-19T01:43:54;7.55;;;5.25;;
3141;SDS011;1581;51.568;6.998;2022-08-19T01:46:22;6.35;;;4.32;;
3141;SDS011;1581;51.568;6.998;2022-08-19T01:48:49;7.03;;;4.72;;
3141;SDS011;1581;51.568;6.998;2022-08-19T01:51:17;7.05;;;4.38;;
3141;SDS011;1581;51.568;6.998;2022-08-19T01:53:46;5.57;;;4.00;;
3141;SDS011;1581;51.568;6.998;2022-08-19T01:56:18;12.43;;;4.50;;
3141;SDS011;1581;51.568;6.998;2022-08-19T01:58:48;4.63;;;4.05;;
3141;SDS011;1581;51.568;6.998;2022-08-19T02:01:20;4.38;;;3.97;;
3141;SDS011;1581;51.568;6.998;2022-08-19T02:03:48;7.10;;;4.18;;
3141;SDS011;1581;51.568;6.998;2022-08-19T02:06:17;5.50;;;4.18;;
3141;SDS011;1581;51.568;6.998;2022-08-19T02:08:44;6.30;;;4.38;;
3141;SDS011;1581;51.568;6.998;2022-08-19T02:11:19;11.23;;;4.22;;
3141;SDS011;1581;51.568;6.998;2022-08-19T02:13:49;5.35;;;3.60;;
3141;SDS011;1581;51.568;6.998;2022-08-19T02:16:17;4.25;;;3.85;;
3141;SDS011;1581;51.568;6.998;2022-08-19T02:18:45;4.25;;;3.85;;
3141;SDS011;1581;51.568;6.998;2022-08-19T02:21:13;5.03;;;4.05;;
3141;SDS011;1581;51.568;6.998;2022-08-19T02:23:41;9.88;;;4.68;;
3141;SDS011;1581;51.568;6.998;2022-08-19T02:26:09;6.55;;;5.07;;
3141;SDS011;1581;51.568;6.998;2022-08-19T02:28:38;4.30;;;3.78;;
3141;SDS011;1581;51.568;6.998;2022-08-19T02:31:08;5.95;;;5.10;;
3141;SDS011;1581;51.568;6.998;2022-08-19T02:33:37;6.60;;;4.37;;
3141;SDS011;1581;51.568;6.998;2022-08-19T02:36:05;6.30;;;5.30;;
3141;SDS011;1581;51.568;6.998;2022-08-19T02:38:44;4.57;;;4.13;;
3141;SDS011;1581;51.568;6.998;2022-08-19T02:41:15;19.33;;;3.60;;
3141;SDS011;1581;51.568;6.998;2022-08-19T02:43:46;6.95;;;4.15;;
3141;SDS011;1581;51.568;6.998;2022-08-19T02:46:15;7.95;;;4.07;;
3141;SDS011;1581;51.568;6.998;2022-08-19T02:48:46;6.23;;;4.20;;
3141;SDS011;1581;51.568;6.998;2022-08-19T02:51:17;7.03;;;4.80;;
3141;SDS011;1581;51.568;6.998;2022-08-19T02:53:49;7.80;;;4.93;;
3141;SDS011;1581;51.568;6.998;2022-08-19T02:56:17;12.97;;;4.30;;
3141;SDS011;1581;51.568;6.998;2022-08-19T02:58:47;5.72;;;5.07;;
3141;SDS011;1581;51.568;6.998;2022-08-19T03:01:19;9.00;;;4.38;;
3141;SDS011;1581;51.568;6.998;2022-08-19T03:03:50;5.60;;;5.10;;
3141;SDS011;1581;51.568;6.998;2022-08-19T03:06:19;8.70;;;4.90;;
3141;SDS011;1581;51.568;6.998;2022-08-19T03:08:47;5.00;;;4.53;;
3141;SDS011;1581;51.568;6.998;2022-08-19T03:11:15;9.10;;;5.47;;
3141;SDS011;1581;51.568;6.998;2022-08-19T03:13:44;5.50;;;5.00;;
3141;SDS011;1581;51.568;6.998;2022-08-19T03:16:15;5.07;;;4.60;;
3141;SDS011;1581;51.568;6.998;2022-08-19T03:18:44;9.17;;;4.40;;
3141;SDS011;1581;51.568;6.998;2022-08-19T03:21:14;10.68;;;5.40;;
3141;SDS011;1581;51.568;6.998;2022-08-19T03:23:42;7.32;;;4.68;;
3141;SDS011;1581;51.568;6.998;2022-08-19T03:26:10;5.45;;;4.90;;
3141;SDS011;1581;51.568;6.998;2022-08-19T03:28:40;9.70;;;6.70;;
3141;SDS011;1581;51.568;6.998;2022-08-19T03:31:11;15.00;;;5.37;;
3141;SDS011;1581;51.568;6.998;2022-08-19T03:33:41;7.27;;;4.87;;
3141;SDS011;1581;51.568;6.998;2022-08-19T03:36:09;10.70;;;6.13;;
3141;SDS011;1581;51.568;6.998;2022-08-19T03:38:41;5.80;;;5.03;;
3141;SDS011;1581;51.568;6.998;2022-08-19T03:41:13;6.95;;;4.57;;
3141;SDS011;1581;51.568;6.998;2022-08-19T03:43:42;6.13;;;5.17;;
3141;SDS011;1581;51.568;6.998;2022-08-19T03:46:15;13.45;;;5.90;;
3141;SDS011;1581;51.568;6.998;2022-08-19T03:48:46;8.00;;;4.80;;
3141;SDS011;1581;51.568;6.998;2022-08-19T03:51:20;4.67;;;4.27;;
3141;SDS011;1581;51.568;6.998;2022-08-19T03:53:51;5.87;;;5.27;;
3141;SDS011;1581;51.568;6.998;2022-08-19T03:56:20;5.10;;;4.20;;
3141;SDS011;1581;51.568;6.998;2022-08-19T03:58:50;7.37;;;5.20;;
3141;SDS011;1581;51.568;6.998;2022-08-19T04:01:21;5.57;;;4.90;;
3141;SDS011;1581;51.568;6.998;2022-08-19T04:03:52;10.67;;;6.07;;
3141;SDS011;1581;51.568;6.998;2022-08-19T04:06:22;12.20;;;5.77;;
3141;SDS011;1581;51.568;6.998;2022-08-19T04:08:53;7.90;;;5.87;;
3141;SDS011;1581;51.568;6.998;2022-08-19T04:11:24;5.53;;;4.80;;
3141;SDS011;1581;51.568;6.998;2022-08-19T04:13:54;9.10;;;5.47;;
3141;SDS011;1581;51.568;6.998;2022-08-19T04:16:25;19.17;;;5.20;;
3141;SDS011;1581;51.568;6.998;2022-08-19T04:18:55;7.97;;;5.43;;
3141;SDS011;1581;51.568;6.998;2022-08-19T04:21:25;9.27;;;5.90;;
3141;SDS011;1581;51.568;6.998;2022-08-19T04:23:54;8.03;;;4.93;;
3141;SDS011;1581;51.568;6.998;2022-08-19T04:26:24;7.07;;;5.47;;
3141;SDS011;1581;51.568;6.998;2022-08-19T04:28:55;9.97;;;4.70;;
3141;SDS011;1581;51.568;6.998;2022-08-19T04:31:24;9.03;;;4.63;;
3141;SDS011;1581;51.568;6.998;2022-08-19T04:33:54;9.90;;;4.83;;
3141;SDS011;1581;51.568;6.998;2022-08-19T04:36:24;8.60;;;5.77;;
3141;SDS011;1581;51.568;6.998;2022-08-19T04:38:57;6.80;;;4.70;;
3141;SDS011;1581;51.568;6.998;2022-08-19T04:41:31;11.70;;;4.63;;
3141;SDS011;1581;51.568;6.998;2022-08-19T04:44:17;17.47;;;4.47;;
3141;SDS011;1581;51.568;6.998;2022-08-19T04:46:47;5.17;;;4.57;;
3141;SDS011;1581;51.568;6.998;2022-08-19T04:49:17;9.37;;;5.00;;
3141;SDS011;1581;51.568;6.998;2022-08-19T04:51:48;15.40;;;5.63;;
3141;SDS011;1581;51.568;6.998;2022-08-19T04:54:17;6.30;;;4.70;;
3141;SDS011;1581;51.568;6.998;2022-08-19T04:56:47;15.63;;;5.50;;
3141;SDS011;1581;51.568;6.998;2022-08-19T04:59:17;8.47;;;5.50;;
3141;SDS011;1581;51.568;6.998;2022-08-19T05:01:47;11.87;;;5.90;;
3141;SDS011;1581;51.568;6.998;2022-08-19T05:04:16;6.77;;;5.70;;
3141;SDS011;1581;51.568;6.998;2022-08-19T05:06:47;15.15;;;5.35;;
3141;SDS011;1581;51.568;6.998;2022-08-19T05:09:15;7.53;;;6.17;;
3141;SDS011;1581;51.568;6.998;2022-08-19T05:11:43;8.30;;;6.00;;
3141;SDS011;1581;51.568;6.998;2022-08-19T05:14:11;8.57;;;6.80;;
3141;SDS011;1581;51.568;6.998;2022-08-19T05:16:39;13.57;;;6.20;;
3141;SDS011;1581;51.568;6.998;2022-08-19T05:19:09;8.57;;;6.20;;
3141;SDS011;1581;51.568;6.998;2022-08-19T05:22:02;8.52;;;7.20;;
3141;SDS011;1581;51.568;6.998;2022-08-19T05:24:47;17.07;;;8.33;;
3141;SDS011;1581;51.568;6.998;2022-08-19T05:27:15;9.30;;;7.10;;
3141;SDS011;1581;51.568;6.998;2022-08-19T05:29:42;12.43;;;8.18;;
3141;SDS011;1581;51.568;6.998;2022-08-19T05:32:10;10.65;;;7.55;;
3141;SDS011;1581;51.568;6.998;2022-08-19T05:34:39;13.13;;;8.20;;
3141;SDS011;1581;51.568;6.998;2022-08-19T05:37:07;9.35;;;7.63;;
3141;SDS011;1581;51.568;6.998;2022-08-19T05:39:35;10.75;;;7.32;;
3141;SDS011;1581;51.568;6.998;2022-08-19T05:42:05;14.50;;;9.02;;
3141;SDS011;1581;51.568;6.998;2022-08-19T05:44:36;12.63;;;9.00;;
3141;SDS011;1581;51.568;6.998;2022-08-19T05:47:08;12.93;;;9.55;;
3141;SDS011;1581;51.568;6.998;2022-08-19T05:49:37;15.43;;;9.68;;
3141;SDS011;1581;51.568;6.998;2022-08-19T05:52:10;18.52;;;9.30;;
3141;SDS011;1581;51.568;6.998;2022-08-19T05:54:41;13.30;;;9.13;;
3141;SDS011;1581;51.568;6.998;2022-08-19T05:57:12;13.02;;;10.52;;
3141;SDS011;1581;51.568;6.998;2022-08-19T05:59:41;13.25;;;8.77;;
3141;SDS011;1581;51.568;6.998;2022-08-19T06:02:11;19.05;;;11.95;;
3141;SDS011;1581;51.568;6.998;2022-08-19T06:04:40;16.80;;;10.63;;
3141;SDS011;1581;51.568;6.998;2022-08-19T06:07:08;27.60;;;11.25;;
3141;SDS011;1581;51.568;6.998;2022-08-19T06:09:36;21.25;;;12.48;;
3141;SDS011;1581;51.568;6.998;2022-08-19T06:12:04;18.10;;;11.98;;
3141;SDS011;1581;51.568;6.998;2022-08-19T06:14:33;21.73;;;12.15;;
3141;SDS011;1581;51.568;6.998;2022-08-19T06:17:02;16.27;;;11.25;;
3141;SDS011;1581;51.568;6.998;2022-08-19T06:19:30;16.25;;;10.15;;
3141;SDS011;1581;51.568;6.998;2022-08-19T06:22:00;18.70;;;10.18;;
3141;SDS011;1581;51.568;6.998;2022-08-19T06:24:29;21.65;;;11.93;;
3141;SDS011;1581;51.568;6.998;2022-08-19T06:26:58;35.08;;;13.02;;
3141;SDS011;1581;51.568;6.998;2022-08-19T06:29:27;17.42;;;11.52;;
3141;SDS011;1581;51.568;6.998;2022-08-19T06:31:58;20.63;;;11.88;;
3141;SDS011;1581;51.568;6.998;2022-08-19T06:34:28;32.28;;;12.55;;
3141;SDS011;1581;51.568;6.998;2022-08-19T06:37:00;24.10;;;13.18;;
3141;SDS011;1581;51.568;6.998;2022-08-19T06:39:29;19.17;;;13.07;;
3141;SDS011;1581;51.568;6.998;2022-08-19T06:42:02;26.45;;;13.25;;
3141;SDS011;1581;51.568;6.998;2022-08-19T06:44:34;30.02;;;12.13;;
3141;SDS011;1581;51.568;6.998;2022-08-19T06:47:04;21.13;;;10.93;;
3141;SDS011;1581;51.568;6.998;2022-08-19T06:49:35;23.95;;;12.93;;
3141;SDS011;1581;51.568;6.998;2022-08-19T06:52:04;18.30;;;12.30;;
3141;SDS011;1581;51.568;6.998;2022-08-19T06:54:32;20.42;;;12.45;;
3141;SDS011;1581;51.568;6.998;2022-08-19T06:57:01;21.88;;;13.30;;
3141;SDS011;1581;51.568;6.998;2022-08-19T06:59:36;21.58;;;12.75;;
3141;SDS011;1581;51.568;6.998;2022-08-19T07:02:11;19.75;;;11.07;;
3141;SDS011;1581;51.568;6.998;2022-08-19T07:04:40;22.30;;;12.48;;
3141;SDS011;1581;51.568;6.998;2022-08-19T07:07:10;22.30;;;13.20;;
3141;SDS011;1581;51.568;6.998;2022-08-19T07:09:41;20.95;;;12.32;;
3141;SDS011;1581;51.568;6.998;2022-08-19T07:12:11;18.27;;;12.68;;
3141;SDS011;1581;51.568;6.998;2022-08-19T07:14:40;19.27;;;13.02;;
3141;SDS011;1581;51.568;6.998;2022-08-19T07:17:11;15.20;;;10.20;;
3141;SDS011;1581;51.568;6.998;2022-08-19T07:19:39;19.25;;;10.63;;
3141;SDS011;1581;51.568;6.998;2022-08-19T07:22:10;21.42;;;12.68;;
3141;SDS011;1581;51.568;6.998;2022-08-19T07:24:38;23.45;;;11.55;;
3141;SDS011;1581;51.568;6.998;2022-08-19T07:27:06;20.20;;;11.00;;
3141;SDS011;1581;51.568;6.998;2022-08-19T07:29:35;28.73;;;11.98;;
3141;SDS011;1581;51.568;6.998;2022-08-19T07:32:03;18.45;;;11.95;;
3141;SDS011;1581;51.568;6.998;2022-08-19T07:34:32;19.10;;;12.07;;
3141;SDS011;1581;51.568;6.998;2022-08-19T07:37:02;16.15;;;10.75;;
3141;SDS011;1581;51.568;6.998;2022-08-19T07:39:33;21.00;;;12.00;;
3141;SDS011;1581;51.568;6.998;2022-08-19T07:42:04;18.70;;;12.10;;
3141;SDS011;1581;51.568;6.998;2022-08-19T07:44:35;26.40;;;13.27;;
3141;SDS011;1581;51.568;6.998;2022-08-19T07:47:04;25.10;;;13.40;;
3141;SDS011;1581;51.568;6.998;2022-08-19T07:49:33;20.17;;;12.70;;
3141;SDS011;1581;51.568;6.998;2022-08-19T07:52:03;16.77;;;12.27;;
3141;SDS011;1581;51.568;6.998;2022-08-19T07:54:36;21.25;;;12.65;;
3141;SDS011;1581;51.568;6.998;2022-08-19T07:57:05;18.48;;;13.10;;
3141;SDS011;1581;51.568;6.998;2022-08-19T07:59:33;23.30;;;13.52;;
3141;SDS011;1581;51.568;6.998;2022-08-19T08:02:02;18.63;;;11.80;;
3141;SDS011;1581;51.568;6.998;2022-08-19T08:04:30;18.77;;;12.68;;
3141;SDS011;1581;51.568;6.998;2022-08-19T08:07:15;20.77;;;13.15;;
3141;SDS011;1581;51.568;6.998;2022-08-19T08:10:02;27.35;;;15.57;;
3141;SDS011;1581;51.568;6.998;2022-08-19T08:12:33;20.70;;;13.77;;
3141;SDS011;1581;51.568;6.998;2022-08-19T08:15:08;21.75;;;14.85;;
3141;SDS011;1581;51.568;6.998;2022-08-19T08:17:41;21.50;;;14.43;;
3141;SDS011;1581;51.568;6.998;2022-08-19T08:20:10;27.63;;;14.93;;
3141;SDS011;1581;51.568;6.998;2022-08-19T08:22:42;25.55;;;15.38;;
3141;SDS011;1581;51.568;6.998;2022-08-19T08:25:30;21.95;;;14.85;;
3141;SDS011;1581;51.568;6.998;2022-08-19T08:27:58;27.52;;;15.07;;
3141;SDS011;1581;51.568;6.998;2022-08-19T08:30:26;17.40;;;12.90;;
3141;SDS011;1581;51.568;6.998;2022-08-19T08:32:55;23.02;;;15.48;;
3141;SDS011;1581;51.568;6.998;2022-08-19T08:35:23;21.20;;;13.82;;
3141;SDS011;1581;51.568;6.998;2022-08-19T08:37:51;24.35;;;16.13;;
3141;SDS011;1581;51.568;6.998;2022-08-19T08:40:22;25.98;;;15.40;;
3141;SDS011;1581;51.568;6.998;2022-08-19T08:42:56;24.13;;;14.45;;
3141;SDS011;1581;51.568;6.998;2022-08-19T08:45:30;25.27;;;13.88;;
3141;SDS011;1581;51.568;6.998;2022-08-19T08:48:03;18.45;;;13.27;;
3141;SDS011;1581;51.568;6.998;2022-08-19T08:50:43;22.90;;;15.00;;
3141;SDS011;1581;51.568;6.998;2022-08-19T08:53:17;20.33;;;15.00;;
3141;SDS011;1581;51.568;6.998;2022-08-19T08:55:47;19.42;;;13.82;;
3141;SDS011;1581;51.568;6.998;2022-08-19T08:58:18;23.60;;;15.77;;
3141;SDS011;1581;51.568;6.998;2022-08-19T09:00:54;25.80;;;15.00;;
3141;SDS011;1581;51.568;6.998;2022-08-19T09:03:23;19.95;;;13.45;;
3141;SDS011;1581;51.568;6.998;2022-08-19T09:05:55;21.27;;;13.18;;
3141;SDS011;1581;51.568;6.998;2022-08-19T09:08:33;21.25;;;15.07;;
3141;SDS011;1581;51.568;6.998;2022-08-19T09:11:13;24.52;;;15.27;;
3141;SDS011;1581;51.568;6.998;2022-08-19T09:13:53;26.20;;;13.93;;
3141;SDS011;1581;51.568;6.998;2022-08-19T09:16:35;22.90;;;13.82;;
3141;SDS011;1581;51.568;6.998;2022-08-19T09:19:06;15.80;;;12.00;;
3141;SDS011;1581;51.568;6.998;2022-08-19T09:21:35;23.92;;;14.63;;
3141;SDS011;1581;51.568;6.998;2022-08-19T09:24:04;21.15;;;13.35;;
3141;SDS011;1581;51.568;6.998;2022-08-19T09:26:32;19.77;;;12.02;;
3141;SDS011;1581;51.568;6.998;2022-08-19T09:29:02;19.00;;;13.07;;
3141;SDS011;1581;51.568;6.998;2022-08-19T09:31:31;18.85;;;12.55;;
3141;SDS011;1581;51.568;6.998;2022-08-19T09:33:59;18.33;;;12.70;;
3141;SDS011;1581;51.568;6.998;2022-08-19T09:36:29;22.40;;;14.90;;
3141;SDS011;1581;51.568;6.998;2022-08-19T09:39:01;23.08;;;15.35;;
3141;SDS011;1581;51.568;6.998;2022-08-19T09:41:30;19.75;;;13.70;;
3141;SDS011;1581;51.568;6.998;2022-08-19T09:43:58;16.77;;;12.50;;
3141;SDS011;1581;51.568;6.998;2022-08-19T09:46:28;20.65;;;11.60;;
3141;SDS011;1581;51.568;6.998;2022-08-19T09:48:57;17.17;;;14.13;;
3141;SDS011;1581;51.568;6.998;2022-08-19T09:51:27;20.83;;;11.27;;
3141;SDS011;1581;51.568;6.998;2022-08-19T09:53:58;18.27;;;11.85;;
3141;SDS011;1581;51.568;6.998;2022-08-19T09:56:27;19.65;;;11.40;;
3141;SDS011;1581;51.568;6.998;2022-08-19T09:58:57;18.60;;;11.85;;
3141;SDS011;1581;51.568;6.998;2022-08-19T10:01:28;17.25;;;10.60;;
3141;SDS011;1581;51.568;6.998;2022-08-19T10:07:34;23.02;;;11.43;;
3141;SDS011;1581;51.568;6.998;2022-08-19T10:10:06;15.50;;;12.48;;
3141;SDS011;1581;51.568;6.998;2022-08-19T10:12:36;17.50;;;12.60;;
3141;SDS011;1581;51.568;6.998;2022-08-19T10:15:10;18.38;;;13.70;;
3141;SDS011;1581;51.568;6.998;2022-08-19T10:17:39;21.63;;;11.75;;
3141;SDS011;1581;51.568;6.998;2022-08-19T10:20:07;18.58;;;11.63;;
3141;SDS011;1581;51.568;6.998;2022-08-19T10:22:36;18.05;;;12.13;;
3141;SDS011;1581;51.568;6.998;2022-08-19T10:25:05;23.73;;;13.93;;
3141;SDS011;1581;51.568;6.998;2022-08-19T10:28:01;21.30;;;13.98;;
3141;SDS011;1581;51.568;6.998;2022-08-19T10:30:31;13.18;;;10.35;;
3141;SDS011;1581;51.568;6.998;2022-08-19T10:33:00;17.10;;;11.27;;
3141;SDS011;1581;51.568;6.998;2022-08-19T10:35:29;22.88;;;13.07;;
3141;SDS011;1581;51.568;6.998;2022-08-19T10:38:03;17.80;;;11.30;;
3141;SDS011;1581;51.568;6.998;2022-08-19T10:40:32;19.20;;;14.68;;
3141;SDS011;1581;51.568;6.998;2022-08-19T10:43:00;18.67;;;13.65;;
3141;SDS011;1581;51.568;6.998;2022-08-19T10:45:27;21.38;;;14.52;;
3141;SDS011;1581;51.568;6.998;2022-08-19T10:47:59;20.00;;;13.27;;
3141;SDS011;1581;51.568;6.998;2022-08-19T10:50:27;19.63;;;13.88;;
3141;SDS011;1581;51.568;6.998;2022-08-19T10:53:12;22.80;;;14.07;;
3141;SDS011;1581;51.568;6.998;2022-08-19T10:55:40;15.30;;;13.00;;
3141;SDS011;1581;51.568;6.998;2022-08-19T10:58:25;20.40;;;13.30;;
3141;SDS011;1581;51.568;6.998;2022-08-19T11:00:52;18.80;;;12.05;;
3141;SDS011;1581;51.568;6.998;2022-08-19T11:03:23;25.13;;;14.00;;
3141;SDS011;1581;51.568;6.998;2022-08-19T11:05:59;20.65;;;13.82;;
3141;SDS011;1581;51.568;6.998;2022-08-19T11:08:27;19.75;;;12.93;;
3141;SDS011;1581;51.568;6.998;2022-08-19T11:10:57;15.60;;;10.85;;
3141;SDS011;1581;51.568;6.998;2022-08-19T11:13:28;14.35;;;11.10;;
3141;SDS011;1581;51.568;6.998;2022-08-19T11:15:59;12.18;;;9.48;;
3141;SDS011;1581;51.568;6.998;2022-08-19T11:18:30;14.60;;;10.68;;
3141;SDS011;1581;51.568;6.998;2022-08-19T11:21:04;15.15;;;11.35;;
3141;SDS011;1581;51.568;6.998;2022-08-19T11:23:34;15.82;;;10.63;;
3141;SDS011;1581;51.568;6.998;2022-08-19T11:26:01;24.25;;;11.18;;
3141;SDS011;1581;51.568;6.998;2022-08-19T11:28:29;15.55;;;11.50;;
3141;SDS011;1581;51.568;6.998;2022-08-19T11:30:56;19.00;;;13.63;;
3141;SDS011;1581;51.568;6.998;2022-08-19T11:33:24;14.48;;;10.25;;
3141;SDS011;1581;51.568;6.998;2022-08-19T11:35:53;18.60;;;11.73;;
3141;SDS011;1581;51.568;6.998;2022-08-19T11:38:23;12.77;;;11.30;;
3141;SDS011;1581;51.568;6.998;2022-08-19T11:40:55;10.93;;;9.45;;
3141;SDS011;1581;51.568;6.998;2022-08-19T11:43:29;12.88;;;9.35;;
3141;SDS011;1581;51.568;6.998;2022-08-19T11:45:57;16.58;;;9.90;;
3141;SDS011;1581;51.568;6.998;2022-08-19T11:48:25;10.63;;;9.02;;
3141;SDS011;1581;51.568;6.998;2022-08-19T11:50:54;19.05;;;8.73;;
3141;SDS011;1581;51.568;6.998;2022-08-19T11:53:22;15.25;;;10.68;;
3141;SDS011;1581;51.568;6.998;2022-08-19T11:55:50;11.35;;;8.65;;
3141;SDS011;1581;51.568;6.998;2022-08-19T11:58:21;10.80;;;8.93;;
3141;SDS011;1581;51.568;6.998;2022-08-19T12:00:50;12.23;;;7.65;;
3141;SDS011;1581;51.568;6.998;2022-08-19T12:03:18;12.10;;;8.18;;
3141;SDS011;1581;51.568;6.998;2022-08-19T12:05:46;8.65;;;7.03;;
3141;SDS011;1581;51.568;6.998;2022-08-19T12:08:15;8.70;;;7.80;;
3141;SDS011;1581;51.568;6.998;2022-08-19T12:10:43;15.20;;;7.47;;
3141;SDS011;1581;51.568;6.998;2022-08-19T12:13:11;8.30;;;6.00;;
3141;SDS011;1581;51.568;6.998;2022-08-19T12:15:45;7.47;;;6.43;;
3141;SDS011;1581;51.568;6.998;2022-08-19T12:18:13;5.57;;;5.07;;
3141;SDS011;1581;51.568;6.998;2022-08-19T12:20:42;7.53;;;4.88;;
3141;SDS011;1581;51.568;6.998;2022-08-19T12:23:11;7.75;;;5.82;;
3141;SDS011;1581;51.568;6.998;2022-08-19T12:25:45;8.85;;;7.85;;
3141;SDS011;1581;51.568;6.998;2022-08-19T12:28:16;7.38;;;6.25;;
3141;SDS011;1581;51.568;6.998;2022-08-19T12:30:45;6.40;;;5.15;;
3141;SDS011;1581;51.568;6.998;2022-08-19T12:33:13;7.68;;;5.93;;
3141;SDS011;1581;51.568;6.998;2022-08-19T12:35:41;6.20;;;5.60;;
3141;SDS011;1581;51.568;6.998;2022-08-19T12:38:11;5.55;;;4.90;;
3141;SDS011;1581;51.568;6.998;2022-08-19T12:40:40;5.22;;;4.72;;
3141;SDS011;1581;51.568;6.998;2022-08-19T12:43:12;5.80;;;4.57;;
3141;SDS011;1581;51.568;6.998;2022-08-19T12:45:42;5.45;;;5.00;;
3141;SDS011;1581;51.568;6.998;2022-08-19T12:48:10;5.43;;;4.78;;
3141;SDS011;1581;51.568;6.998;2022-08-19T12:50:38;5.60;;;4.07;;
3141;SDS011;1581;51.568;6.998;2022-08-19T12:53:06;4.95;;;4.32;;
3141;SDS011;1581;51.568;6.998;2022-08-19T12:55:34;7.03;;;4.47;;
3141;SDS011;1581;51.568;6.998;2022-08-19T12:58:01;5.78;;;5.05;;
3141;SDS011;1581;51.568;6.998;2022-08-19T13:00:30;3.67;;;3.38;;
3141;SDS011;1581;51.568;6.998;2022-08-19T13:03:00;7.47;;;3.83;;
3141;SDS011;1581;51.568;6.998;2022-08-19T13:05:28;6.93;;;4.72;;
3141;SDS011;1581;51.568;6.998;2022-08-19T13:08:00;4.40;;;3.83;;
3141;SDS011;1581;51.568;6.998;2022-08-19T13:10:29;4.65;;;4.35;;
3141;SDS011;1581;51.568;6.998;2022-08-19T13:13:00;7.15;;;3.80;;
3141;SDS011;1581;51.568;6.998;2022-08-19T13:15:32;3.85;;;3.55;;
3141;SDS011;1581;51.568;6.998;2022-08-19T13:18:01;3.17;;;2.97;;
3141;SDS011;1581;51.568;6.998;2022-08-19T13:20:29;5.07;;;4.15;;
3141;SDS011;1581;51.568;6.998;2022-08-19T13:22:56;6.30;;;4.05;;
3141;SDS011;1581;51.568;6.998;2022-08-19T13:25:24;4.18;;;3.70;;
3141;SDS011;1581;51.568;6.998;2022-08-19T13:27:52;3.58;;;3.33;;
3141;SDS011;1581;51.568;6.998;2022-08-19T13:30:20;5.95;;;3.50;;
3141;SDS011;1581;51.568;6.998;2022-08-19T13:33:07;6.15;;;3.70;;
3141;SDS011;1581;51.568;6.998;2022-08-19T13:35:40;4.57;;;3.42;;
3141;SDS011;1581;51.568;6.998;2022-08-19T13:38:11;7.65;;;3.22;;
3141;SDS011;1581;51.568;6.998;2022-08-19T13:40:40;4.43;;;3.40;;
3141;SDS011;1581;51.568;6.998;2022-08-19T13:43:08;4.20;;;3.10;;
3141;SDS011;1581;51.568;6.998;2022-08-19T13:45:36;7.63;;;3.08;;
3141;SDS011;1581;51.568;6.998;2022-08-19T13:48:04;2.50;;;2.22;;
3141;SDS011;1581;51.568;6.998;2022-08-19T13:50:35;3.10;;;2.90;;
3141;SDS011;1581;51.568;6.998;2022-08-19T13:53:07;3.00;;;2.67;;
3141;SDS011;1581;51.568;6.998;2022-08-19T13:55:37;2.95;;;2.75;;
3141;SDS011;1581;51.568;6.998;2022-08-19T13:58:05;5.25;;;3.20;;
3141;SDS011;1581;51.568;6.998;2022-08-19T14:00:34;4.38;;;3.47;;
3141;SDS011;1581;51.568;6.998;2022-08-19T14:03:05;2.67;;;2.47;;
3141;SDS011;1581;51.568;6.998;2022-08-19T14:05:36;3.28;;;2.97;;
3141;SDS011;1581;51.568;6.998;2022-08-19T14:08:04;4.65;;;3.42;;
3141;SDS011;1581;51.568;6.998;2022-08-19T14:10:31;3.17;;;2.88;;
3141;SDS011;1581;51.568;6.998;2022-08-19T14:13:01;5.15;;;3.47;;
3141;SDS011;1581;51.568;6.998;2022-08-19T14:15:30;6.15;;;4.43;;
3141;SDS011;1581;51.568;6.998;2022-08-19T14:17:58;5.88;;;4.18;;
3141;SDS011;1581;51.568;6.998;2022-08-19T14:20:27;4.38;;;3.63;;
3141;SDS011;1581;51.568;6.998;2022-08-19T14:22:55;6.47;;;3.67;;
3141;SDS011;1581;51.568;6.998;2022-08-19T14:25:25;4.10;;;3.78;;
3141;SDS011;1581;51.568;6.998;2022-08-19T14:27:55;8.65;;;3.83;;
3141;SDS011;1581;51.568;6.998;2022-08-19T14:30:24;3.95;;;3.72;;
3141;SDS011;1581;51.568;6.998;2022-08-19T14:32:55;5.95;;;3.65;;
3141;SDS011;1581;51.568;6.998;2022-08-19T14:35:27;6.05;;;4.13;;
3141;SDS011;1581;51.568;6.998;2022-08-19T14:37:59;6.53;;;4.43;;
3141;SDS011;1581;51.568;6.998;2022-08-19T14:40:28;9.07;;;4.90;;
3141;SDS011;1581;51.568;6.998;2022-08-19T14:42:57;6.00;;;5.40;;
3141;SDS011;1581;51.568;6.998;2022-08-19T14:45:29;8.27;;;6.85;;
3141;SDS011;1581;51.568;6.998;2022-08-19T14:48:00;8.82;;;6.93;;
3141;SDS011;1581;51.568;6.998;2022-08-19T14:50:29;7.57;;;6.60;;
3141;SDS011;1581;51.568;6.998;2022-08-19T14:52:57;9.13;;;7.18;;
3141;SDS011;1581;51.568;6.998;2022-08-19T14:55:30;7.07;;;6.43;;
3141;SDS011;1581;51.568;6.998;2022-08-19T14:57:57;12.38;;;7.22;;
3141;SDS011;1581;51.568;6.998;2022-08-19T15:00:26;7.68;;;6.65;;
3141;SDS011;1581;51.568;6.998;2022-08-19T15:02:54;7.60;;;6.35;;
3141;SDS011;1581;51.568;6.998;2022-08-19T15:05:22;7.13;;;5.35;;
3141;SDS011;1581;51.568;6.998;2022-08-19T15:07:51;9.00;;;5.85;;
3141;SDS011;1581;51.568;6.998;2022-08-19T15:10:22;5.78;;;5.28;;
3141;SDS011;1581;51.568;6.998;2022-08-19T15:12:50;6.00;;;5.35;;
3141;SDS011;1581;51.568;6.998;2022-08-19T15:15:19;7.18;;;5.90;;
3141;SDS011;1581;51.568;6.998;2022-08-19T15:17:48;5.53;;;4.68;;
3141;SDS011;1581;51.568;6.998;2022-08-19T15:20:16;5.85;;;4.68;;
3141;SDS011;1581;51.568;6.998;2022-08-19T15:22:46;9.85;;;5.03;;
3141;SDS011;1581;51.568;6.998;2022-08-19T15:25:16;9.93;;;4.85;;